Aeroporto :
LOGIN :

Iscrizione | Disclaimer

   EN    FR    IT 

 










Sommario :    VFR   VFR Marginale   IFR   IFR Intensivo   IFR Molto Intensivo
Visibilità : 
Base nubi : 
>= 8 km
>= 3000ft
5 / 8 km
1000 / 3000 ft
1500m / 5 km
500 / 1000 ft
800 / 1500m
200 / 500 ft
< 800m
< 200 ft
Simboli :   Temporali  Nebbia  Neve Forte  Precipitazioni Forti  Vento > 20 kt
SIGMETs :   Varie  Temporali  Ghiacco  Turbolenza  Onda orograficha  Ceneri Vulcaniche






- Altitudine del aeroporto : 297 ft
- Codice IATA : UIP


LFRQ - Quimper Pluguffan

ULTIMO METAR :
  • 211530Z AUTO 29003KT CAVOK 14/10 Q1020 NOSIG

METARs OBSOLETI :
  • 211500Z AUTO 00000KT CAVOK 14/07 Q1020 NOSIG
  • 211430Z AUTO 05002KT CAVOK 14/09 Q1020 NOSIG
  • 211400Z AUTO 03004KT 360V060 CAVOK 15/08 Q1020 NOSIG
  • 211330Z AUTO 06003KT 360V100 9999 FEW036 SCT044 BKN058 15/08 Q1020 NOSIG
  • 211300Z AUTO VRB02KT 9999 BKN035 16/08 Q1020 NOSIG

TAF TAF LFRQ
Valido dal 21 a 12 ore il 22 a 12 ore UTC


211100Z 2112/2212 02006KT 9999 SCT030
BECMG 2121/2124 1500 MIFG
TEMPO 2203/2209 0600 FG VV///
PROB30
TEMPO 2205/2208 0300 FG
BECMG 2209/2212 CAVOK



MetMap, La meteo Aeronautica in un colpo d'occhio ! - Copyright ORBIFLY Dicembre 2007 - Disclaimer

ORBIFLY MET'MAP TEAM :

Programmazione e sviluppo : Alexandra Zaïnal
Concezione e sviluppo : Baudouin d'Aumeries
Co-Programmazione e sviluppo : Marc-Olivier Méhu
Supporto tecnico e logistico : Manuel Goepfert
Aiuto per la traduzione : Arnaldo La Scala

Contatto : metmap@orbifly.com




FONTI E CREDITI :

   NOAA